sensor_id;sensor_type;location;lat;lon;timestamp;P1;durP1;ratioP1;P2;durP2;ratioP2
18677;SDS011;9469;51.114;13.914;2023-02-01T00:03:54;9.73;;;4.10;;
18677;SDS011;9469;51.114;13.914;2023-02-01T00:09:00;7.57;;;4.20;;
18677;SDS011;9469;51.114;13.914;2023-02-01T00:14:06;9.70;;;4.67;;
18677;SDS011;9469;51.114;13.914;2023-02-01T00:19:15;8.03;;;4.07;;
18677;SDS011;9469;51.114;13.914;2023-02-01T00:24:20;10.03;;;5.37;;
18677;SDS011;9469;51.114;13.914;2023-02-01T00:29:25;9.97;;;3.87;;
18677;SDS011;9469;51.114;13.914;2023-02-01T00:34:32;11.67;;;4.67;;
18677;SDS011;9469;51.114;13.914;2023-02-01T00:39:38;10.23;;;3.63;;
18677;SDS011;9469;51.114;13.914;2023-02-01T00:44:45;8.27;;;4.30;;
18677;SDS011;9469;51.114;13.914;2023-02-01T00:49:52;6.83;;;3.10;;
18677;SDS011;9469;51.114;13.914;2023-02-01T00:54:57;11.63;;;3.43;;
18677;SDS011;9469;51.114;13.914;2023-02-01T01:00:03;12.47;;;4.70;;
18677;SDS011;9469;51.114;13.914;2023-02-01T01:05:14;9.70;;;3.80;;
18677;SDS011;9469;51.114;13.914;2023-02-01T01:10:19;10.50;;;4.60;;
18677;SDS011;9469;51.114;13.914;2023-02-01T01:15:24;10.03;;;3.30;;
18677;SDS011;9469;51.114;13.914;2023-02-01T01:20:33;7.93;;;3.43;;
18677;SDS011;9469;51.114;13.914;2023-02-01T01:25:39;10.63;;;3.63;;
18677;SDS011;9469;51.114;13.914;2023-02-01T01:30:45;6.23;;;3.47;;
18677;SDS011;9469;51.114;13.914;2023-02-01T01:35:53;15.37;;;3.73;;
18677;SDS011;9469;51.114;13.914;2023-02-01T01:40:58;5.40;;;3.17;;
18677;SDS011;9469;51.114;13.914;2023-02-01T01:46:03;7.13;;;3.10;;
18677;SDS011;9469;51.114;13.914;2023-02-01T01:51:11;12.70;;;3.67;;
18677;SDS011;9469;51.114;13.914;2023-02-01T01:56:19;11.40;;;3.50;;
18677;SDS011;9469;51.114;13.914;2023-02-01T02:01:24;6.70;;;2.43;;
18677;SDS011;9469;51.114;13.914;2023-02-01T02:06:38;7.13;;;2.80;;
18677;SDS011;9469;51.114;13.914;2023-02-01T02:11:49;9.57;;;2.90;;
18677;SDS011;9469;51.114;13.914;2023-02-01T02:16:58;11.67;;;3.10;;
18677;SDS011;9469;51.114;13.914;2023-02-01T02:27:56;8.77;;;3.10;;
18677;SDS011;9469;51.114;13.914;2023-02-01T02:38:53;9.37;;;3.57;;
18677;SDS011;9469;51.114;13.914;2023-02-01T02:44:09;11.87;;;2.93;;
18677;SDS011;9469;51.114;13.914;2023-02-01T02:49:39;10.70;;;3.23;;
18677;SDS011;9469;51.114;13.914;2023-02-01T02:55:10;8.60;;;3.30;;
18677;SDS011;9469;51.114;13.914;2023-02-01T03:00:18;6.87;;;2.93;;
18677;SDS011;9469;51.114;13.914;2023-02-01T03:05:45;8.23;;;3.20;;
18677;SDS011;9469;51.114;13.914;2023-02-01T03:10:55;12.60;;;3.60;;
18677;SDS011;9469;51.114;13.914;2023-02-01T03:16:06;9.73;;;3.20;;
18677;SDS011;9469;51.114;13.914;2023-02-01T03:21:21;7.60;;;3.20;;
18677;SDS011;9469;51.114;13.914;2023-02-01T03:26:30;11.20;;;3.40;;
18677;SDS011;9469;51.114;13.914;2023-02-01T03:31:41;12.93;;;3.83;;
18677;SDS011;9469;51.114;13.914;2023-02-01T03:36:50;8.70;;;4.03;;
18677;SDS011;9469;51.114;13.914;2023-02-01T03:42:00;5.97;;;2.70;;
18677;SDS011;9469;51.114;13.914;2023-02-01T03:47:09;14.83;;;3.50;;
18677;SDS011;9469;51.114;13.914;2023-02-01T03:52:28;12.80;;;3.20;;
18677;SDS011;9469;51.114;13.914;2023-02-01T03:57:43;11.27;;;2.87;;
18677;SDS011;9469;51.114;13.914;2023-02-01T04:02:50;9.23;;;3.40;;
18677;SDS011;9469;51.114;13.914;2023-02-01T04:07:59;9.73;;;3.67;;
18677;SDS011;9469;51.114;13.914;2023-02-01T04:13:06;14.80;;;3.63;;
18677;SDS011;9469;51.114;13.914;2023-02-01T04:18:11;12.70;;;4.03;;
18677;SDS011;9469;51.114;13.914;2023-02-01T04:23:19;14.70;;;3.77;;
18677;SDS011;9469;51.114;13.914;2023-02-01T04:28:24;9.23;;;3.10;;
18677;SDS011;9469;51.114;13.914;2023-02-01T04:33:31;10.03;;;4.80;;
18677;SDS011;9469;51.114;13.914;2023-02-01T04:38:39;10.20;;;3.40;;
18677;SDS011;9469;51.114;13.914;2023-02-01T04:43:46;8.13;;;2.73;;
18677;SDS011;9469;51.114;13.914;2023-02-01T04:48:52;8.53;;;3.00;;
18677;SDS011;9469;51.114;13.914;2023-02-01T04:54:00;11.40;;;3.50;;
18677;SDS011;9469;51.114;13.914;2023-02-01T04:59:10;9.77;;;3.17;;
18677;SDS011;9469;51.114;13.914;2023-02-01T05:04:16;8.40;;;2.93;;
18677;SDS011;9469;51.114;13.914;2023-02-01T05:09:24;9.90;;;3.20;;
18677;SDS011;9469;51.114;13.914;2023-02-01T05:14:30;11.53;;;3.70;;
18677;SDS011;9469;51.114;13.914;2023-02-01T05:19:35;9.30;;;3.40;;
18677;SDS011;9469;51.114;13.914;2023-02-01T05:24:43;16.77;;;5.50;;
18677;SDS011;9469;51.114;13.914;2023-02-01T05:29:49;8.70;;;3.93;;
18677;SDS011;9469;51.114;13.914;2023-02-01T05:34:55;12.17;;;3.43;;
18677;SDS011;9469;51.114;13.914;2023-02-01T05:40:03;9.17;;;3.17;;
18677;SDS011;9469;51.114;13.914;2023-02-01T05:45:09;9.20;;;3.43;;
18677;SDS011;9469;51.114;13.914;2023-02-01T05:50:15;10.23;;;3.40;;
18677;SDS011;9469;51.114;13.914;2023-02-01T05:55:31;9.90;;;3.37;;
18677;SDS011;9469;51.114;13.914;2023-02-01T06:00:36;12.47;;;3.70;;
18677;SDS011;9469;51.114;13.914;2023-02-01T06:05:43;14.47;;;4.17;;
18677;SDS011;9469;51.114;13.914;2023-02-01T06:10:51;11.67;;;3.40;;
18677;SDS011;9469;51.114;13.914;2023-02-01T06:16:06;14.17;;;4.27;;
18677;SDS011;9469;51.114;13.914;2023-02-01T06:21:17;13.27;;;4.17;;
18677;SDS011;9469;51.114;13.914;2023-02-01T06:26:30;14.43;;;4.07;;
18677;SDS011;9469;51.114;13.914;2023-02-01T06:31:36;9.63;;;3.80;;
18677;SDS011;9469;51.114;13.914;2023-02-01T06:36:41;18.67;;;3.70;;
18677;SDS011;9469;51.114;13.914;2023-02-01T06:41:49;16.07;;;4.43;;
18677;SDS011;9469;51.114;13.914;2023-02-01T06:46:54;10.23;;;3.60;;
18677;SDS011;9469;51.114;13.914;2023-02-01T06:52:00;11.87;;;4.07;;
18677;SDS011;9469;51.114;13.914;2023-02-01T06:57:07;13.33;;;3.90;;
18677;SDS011;9469;51.114;13.914;2023-02-01T07:02:13;13.10;;;3.77;;
18677;SDS011;9469;51.114;13.914;2023-02-01T07:07:22;9.87;;;3.67;;
18677;SDS011;9469;51.114;13.914;2023-02-01T07:12:35;13.43;;;3.47;;
18677;SDS011;9469;51.114;13.914;2023-02-01T07:17:40;11.80;;;4.70;;
18677;SDS011;9469;51.114;13.914;2023-02-01T07:22:48;13.57;;;4.70;;
18677;SDS011;9469;51.114;13.914;2023-02-01T07:28:03;7.33;;;3.67;;
18677;SDS011;9469;51.114;13.914;2023-02-01T07:33:31;13.70;;;4.27;;
18677;SDS011;9469;51.114;13.914;2023-02-01T07:38:37;10.43;;;3.90;;
18677;SDS011;9469;51.114;13.914;2023-02-01T07:43:44;18.10;;;4.37;;
18677;SDS011;9469;51.114;13.914;2023-02-01T07:48:52;13.40;;;5.10;;
18677;SDS011;9469;51.114;13.914;2023-02-01T07:53:57;15.90;;;4.80;;
18677;SDS011;9469;51.114;13.914;2023-02-01T07:59:05;15.63;;;4.53;;
18677;SDS011;9469;51.114;13.914;2023-02-01T08:04:11;21.27;;;5.37;;
18677;SDS011;9469;51.114;13.914;2023-02-01T08:09:19;13.83;;;5.37;;
18677;SDS011;9469;51.114;13.914;2023-02-01T08:14:30;19.73;;;6.90;;
18677;SDS011;9469;51.114;13.914;2023-02-01T08:19:35;28.70;;;10.00;;
18677;SDS011;9469;51.114;13.914;2023-02-01T08:24:41;10.43;;;3.80;;
18677;SDS011;9469;51.114;13.914;2023-02-01T08:29:49;10.47;;;4.00;;
18677;SDS011;9469;51.114;13.914;2023-02-01T08:34:55;17.43;;;6.60;;
18677;SDS011;9469;51.114;13.914;2023-02-01T08:40:00;11.70;;;4.83;;
18677;SDS011;9469;51.114;13.914;2023-02-01T08:45:10;14.17;;;4.40;;
18677;SDS011;9469;51.114;13.914;2023-02-01T08:50:17;20.77;;;8.37;;
18677;SDS011;9469;51.114;13.914;2023-02-01T08:55:24;14.33;;;4.67;;
18677;SDS011;9469;51.114;13.914;2023-02-01T09:00:32;16.60;;;5.00;;
18677;SDS011;9469;51.114;13.914;2023-02-01T09:05:37;17.23;;;5.90;;
18677;SDS011;9469;51.114;13.914;2023-02-01T09:10:50;15.93;;;5.80;;
18677;SDS011;9469;51.114;13.914;2023-02-01T09:15:57;13.77;;;4.60;;
18677;SDS011;9469;51.114;13.914;2023-02-01T09:21:03;14.73;;;4.67;;
18677;SDS011;9469;51.114;13.914;2023-02-01T09:26:11;15.53;;;4.50;;
18677;SDS011;9469;51.114;13.914;2023-02-01T09:31:23;12.67;;;2.83;;
18677;SDS011;9469;51.114;13.914;2023-02-01T09:36:29;12.63;;;3.33;;
18677;SDS011;9469;51.114;13.914;2023-02-01T09:41:48;23.67;;;7.87;;
18677;SDS011;9469;51.114;13.914;2023-02-01T09:47:04;11.87;;;3.53;;
18677;SDS011;9469;51.114;13.914;2023-02-01T09:52:16;12.30;;;3.50;;
18677;SDS011;9469;51.114;13.914;2023-02-01T09:57:31;9.33;;;4.23;;
18677;SDS011;9469;51.114;13.914;2023-02-01T10:02:51;8.93;;;3.40;;
18677;SDS011;9469;51.114;13.914;2023-02-01T10:08:00;5.73;;;2.60;;
18677;SDS011;9469;51.114;13.914;2023-02-01T10:13:17;5.63;;;3.37;;
18677;SDS011;9469;51.114;13.914;2023-02-01T10:24:33;11.00;;;4.00;;
18677;SDS011;9469;51.114;13.914;2023-02-01T10:29:43;10.60;;;4.50;;
18677;SDS011;9469;51.114;13.914;2023-02-01T10:34:55;8.60;;;3.83;;
18677;SDS011;9469;51.114;13.914;2023-02-01T10:40:05;8.40;;;4.03;;
18677;SDS011;9469;51.114;13.914;2023-02-01T10:45:22;8.67;;;3.67;;
18677;SDS011;9469;51.114;13.914;2023-02-01T10:50:37;11.47;;;4.73;;
18677;SDS011;9469;51.114;13.914;2023-02-01T10:55:48;9.70;;;4.57;;
18677;SDS011;9469;51.114;13.914;2023-02-01T11:00:57;17.63;;;7.13;;
18677;SDS011;9469;51.114;13.914;2023-02-01T11:06:13;10.10;;;3.87;;
18677;SDS011;9469;51.114;13.914;2023-02-01T11:11:22;10.43;;;4.07;;
18677;SDS011;9469;51.114;13.914;2023-02-01T11:16:29;11.53;;;3.87;;
18677;SDS011;9469;51.114;13.914;2023-02-01T11:21:44;13.77;;;3.90;;
18677;SDS011;9469;51.114;13.914;2023-02-01T11:26:55;6.17;;;3.20;;
18677;SDS011;9469;51.114;13.914;2023-02-01T11:32:02;11.60;;;3.53;;
18677;SDS011;9469;51.114;13.914;2023-02-01T11:37:13;17.73;;;4.43;;
18677;SDS011;9469;51.114;13.914;2023-02-01T11:42:23;9.90;;;4.83;;
18677;SDS011;9469;51.114;13.914;2023-02-01T11:47:38;8.27;;;3.87;;
18677;SDS011;9469;51.114;13.914;2023-02-01T11:52:52;12.03;;;4.07;;
18677;SDS011;9469;51.114;13.914;2023-02-01T12:09:37;13.20;;;4.53;;
18677;SDS011;9469;51.114;13.914;2023-02-01T12:15:14;9.17;;;3.80;;
18677;SDS011;9469;51.114;13.914;2023-02-01T12:26:53;11.47;;;4.10;;
18677;SDS011;9469;51.114;13.914;2023-02-01T12:32:19;10.93;;;3.90;;
18677;SDS011;9469;51.114;13.914;2023-02-01T12:37:36;12.23;;;4.00;;
18677;SDS011;9469;51.114;13.914;2023-02-01T12:43:00;9.03;;;3.50;;
18677;SDS011;9469;51.114;13.914;2023-02-01T12:48:20;9.93;;;4.07;;
18677;SDS011;9469;51.114;13.914;2023-02-01T12:53:32;11.97;;;3.47;;
18677;SDS011;9469;51.114;13.914;2023-02-01T12:58:52;9.13;;;3.87;;
18677;SDS011;9469;51.114;13.914;2023-02-01T13:04:03;13.07;;;3.47;;
18677;SDS011;9469;51.114;13.914;2023-02-01T13:09:18;6.50;;;3.40;;
18677;SDS011;9469;51.114;13.914;2023-02-01T13:14:32;10.17;;;3.30;;
18677;SDS011;9469;51.114;13.914;2023-02-01T13:19:43;11.63;;;3.30;;
18677;SDS011;9469;51.114;13.914;2023-02-01T13:24:55;14.93;;;4.47;;
18677;SDS011;9469;51.114;13.914;2023-02-01T13:30:07;10.97;;;3.17;;
18677;SDS011;9469;51.114;13.914;2023-02-01T13:35:37;12.00;;;3.63;;
18677;SDS011;9469;51.114;13.914;2023-02-01T13:40:53;6.83;;;3.40;;
18677;SDS011;9469;51.114;13.914;2023-02-01T13:46:23;4.83;;;3.10;;
18677;SDS011;9469;51.114;13.914;2023-02-01T13:51:32;11.40;;;3.37;;
18677;SDS011;9469;51.114;13.914;2023-02-01T13:56:41;7.07;;;2.87;;
18677;SDS011;9469;51.114;13.914;2023-02-01T14:01:50;14.00;;;3.70;;
18677;SDS011;9469;51.114;13.914;2023-02-01T14:07:15;9.90;;;3.73;;
18677;SDS011;9469;51.114;13.914;2023-02-01T14:18:03;12.57;;;3.90;;
18677;SDS011;9469;51.114;13.914;2023-02-01T14:23:47;7.43;;;2.47;;
18677;SDS011;9469;51.114;13.914;2023-02-01T14:29:02;10.63;;;3.00;;
18677;SDS011;9469;51.114;13.914;2023-02-01T14:34:29;8.70;;;3.47;;
18677;SDS011;9469;51.114;13.914;2023-02-01T14:39:47;8.67;;;3.33;;
18677;SDS011;9469;51.114;13.914;2023-02-01T14:50:36;10.53;;;2.50;;
18677;SDS011;9469;51.114;13.914;2023-02-01T14:55:44;7.80;;;2.70;;
18677;SDS011;9469;51.114;13.914;2023-02-01T15:00:53;7.90;;;2.77;;
18677;SDS011;9469;51.114;13.914;2023-02-01T15:06:13;11.00;;;3.67;;
18677;SDS011;9469;51.114;13.914;2023-02-01T15:11:27;8.57;;;3.80;;
18677;SDS011;9469;51.114;13.914;2023-02-01T15:16:34;8.47;;;3.10;;
18677;SDS011;9469;51.114;13.914;2023-02-01T15:21:55;8.30;;;2.93;;
18677;SDS011;9469;51.114;13.914;2023-02-01T15:27:03;7.97;;;3.00;;
18677;SDS011;9469;51.114;13.914;2023-02-01T15:37:39;7.60;;;3.17;;
18677;SDS011;9469;51.114;13.914;2023-02-01T15:42:48;10.13;;;3.77;;
18677;SDS011;9469;51.114;13.914;2023-02-01T15:47:58;10.80;;;4.80;;
18677;SDS011;9469;51.114;13.914;2023-02-01T15:53:10;10.03;;;4.30;;
18677;SDS011;9469;51.114;13.914;2023-02-01T15:58:23;11.40;;;3.80;;
18677;SDS011;9469;51.114;13.914;2023-02-01T16:03:34;12.30;;;3.27;;
18677;SDS011;9469;51.114;13.914;2023-02-01T16:08:52;7.57;;;3.60;;
18677;SDS011;9469;51.114;13.914;2023-02-01T16:13:59;6.90;;;3.23;;
18677;SDS011;9469;51.114;13.914;2023-02-01T16:19:06;6.93;;;2.50;;
18677;SDS011;9469;51.114;13.914;2023-02-01T16:24:13;8.50;;;3.50;;
18677;SDS011;9469;51.114;13.914;2023-02-01T16:29:21;8.23;;;3.27;;
18677;SDS011;9469;51.114;13.914;2023-02-01T16:34:29;5.40;;;3.00;;
18677;SDS011;9469;51.114;13.914;2023-02-01T16:39:39;8.77;;;3.27;;
18677;SDS011;9469;51.114;13.914;2023-02-01T16:44:46;10.40;;;4.30;;
18677;SDS011;9469;51.114;13.914;2023-02-01T16:49:51;10.63;;;4.53;;
18677;SDS011;9469;51.114;13.914;2023-02-01T16:55:07;8.83;;;4.57;;
18677;SDS011;9469;51.114;13.914;2023-02-01T17:00:20;9.53;;;4.63;;
18677;SDS011;9469;51.114;13.914;2023-02-01T17:05:26;9.83;;;5.07;;
18677;SDS011;9469;51.114;13.914;2023-02-01T17:10:36;10.20;;;3.97;;
18677;SDS011;9469;51.114;13.914;2023-02-01T17:15:43;4.23;;;2.43;;
18677;SDS011;9469;51.114;13.914;2023-02-01T17:21:02;4.27;;;2.97;;
18677;SDS011;9469;51.114;13.914;2023-02-01T17:26:14;3.30;;;1.67;;
18677;SDS011;9469;51.114;13.914;2023-02-01T17:31:20;2.67;;;1.80;;
18677;SDS011;9469;51.114;13.914;2023-02-01T17:36:25;1.50;;;1.40;;
18677;SDS011;9469;51.114;13.914;2023-02-01T17:41:36;2.87;;;1.57;;
18677;SDS011;9469;51.114;13.914;2023-02-01T17:46:41;1.97;;;1.50;;
18677;SDS011;9469;51.114;13.914;2023-02-01T17:51:46;1.37;;;1.20;;
18677;SDS011;9469;51.114;13.914;2023-02-01T17:56:55;3.43;;;1.40;;
18677;SDS011;9469;51.114;13.914;2023-02-01T18:02:00;2.17;;;1.40;;
18677;SDS011;9469;51.114;13.914;2023-02-01T18:07:06;3.10;;;1.67;;
18677;SDS011;9469;51.114;13.914;2023-02-01T18:12:17;1.60;;;1.50;;
18677;SDS011;9469;51.114;13.914;2023-02-01T18:17:24;2.23;;;1.50;;
18677;SDS011;9469;51.114;13.914;2023-02-01T18:22:29;2.87;;;1.70;;
18677;SDS011;9469;51.114;13.914;2023-02-01T18:27:37;3.90;;;3.13;;
18677;SDS011;9469;51.114;13.914;2023-02-01T18:32:43;8.47;;;1.80;;
18677;SDS011;9469;51.114;13.914;2023-02-01T18:37:49;3.60;;;1.60;;
18677;SDS011;9469;51.114;13.914;2023-02-01T18:42:59;9.03;;;1.93;;
18677;SDS011;9469;51.114;13.914;2023-02-01T18:48:07;3.33;;;2.33;;
18677;SDS011;9469;51.114;13.914;2023-02-01T18:53:14;8.30;;;2.77;;
18677;SDS011;9469;51.114;13.914;2023-02-01T18:58:25;4.90;;;2.13;;
18677;SDS011;9469;51.114;13.914;2023-02-01T19:03:31;6.43;;;2.43;;
18677;SDS011;9469;51.114;13.914;2023-02-01T19:08:46;7.07;;;1.93;;
18677;SDS011;9469;51.114;13.914;2023-02-01T19:13:54;7.23;;;2.30;;
18677;SDS011;9469;51.114;13.914;2023-02-01T19:18:59;5.87;;;2.20;;
18677;SDS011;9469;51.114;13.914;2023-02-01T19:24:04;5.80;;;2.40;;
18677;SDS011;9469;51.114;13.914;2023-02-01T19:29:14;2.60;;;1.83;;
18677;SDS011;9469;51.114;13.914;2023-02-01T19:34:19;2.77;;;2.13;;
18677;SDS011;9469;51.114;13.914;2023-02-01T19:39:24;3.83;;;2.00;;
18677;SDS011;9469;51.114;13.914;2023-02-01T19:44:32;5.17;;;2.00;;
18677;SDS011;9469;51.114;13.914;2023-02-01T19:49:38;7.63;;;2.23;;
18677;SDS011;9469;51.114;13.914;2023-02-01T19:54:43;6.20;;;2.70;;
18677;SDS011;9469;51.114;13.914;2023-02-01T19:59:52;3.93;;;2.00;;
18677;SDS011;9469;51.114;13.914;2023-02-01T20:05:00;3.23;;;1.73;;
18677;SDS011;9469;51.114;13.914;2023-02-01T20:10:06;5.27;;;2.10;;
18677;SDS011;9469;51.114;13.914;2023-02-01T20:15:16;2.90;;;2.23;;
18677;SDS011;9469;51.114;13.914;2023-02-01T20:20:26;4.17;;;2.10;;
18677;SDS011;9469;51.114;13.914;2023-02-01T20:25:32;3.53;;;2.00;;
18677;SDS011;9469;51.114;13.914;2023-02-01T20:30:40;7.13;;;1.90;;
18677;SDS011;9469;51.114;13.914;2023-02-01T20:35:47;4.83;;;2.30;;
18677;SDS011;9469;51.114;13.914;2023-02-01T20:41:00;6.23;;;2.23;;
18677;SDS011;9469;51.114;13.914;2023-02-01T20:46:09;8.57;;;2.47;;
18677;SDS011;9469;51.114;13.914;2023-02-01T20:51:17;5.20;;;2.40;;
18677;SDS011;9469;51.114;13.914;2023-02-01T20:56:24;6.40;;;2.67;;
18677;SDS011;9469;51.114;13.914;2023-02-01T21:01:31;8.37;;;2.40;;
18677;SDS011;9469;51.114;13.914;2023-02-01T21:06:36;5.33;;;2.73;;
18677;SDS011;9469;51.114;13.914;2023-02-01T21:11:41;4.00;;;2.00;;
18677;SDS011;9469;51.114;13.914;2023-02-01T21:16:50;6.20;;;2.60;;
18677;SDS011;9469;51.114;13.914;2023-02-01T21:21:55;7.53;;;2.90;;
18677;SDS011;9469;51.114;13.914;2023-02-01T21:27:01;6.60;;;2.50;;
18677;SDS011;9469;51.114;13.914;2023-02-01T21:32:12;8.57;;;2.80;;
18677;SDS011;9469;51.114;13.914;2023-02-01T21:37:18;7.80;;;2.40;;
18677;SDS011;9469;51.114;13.914;2023-02-01T21:42:26;4.00;;;2.13;;
18677;SDS011;9469;51.114;13.914;2023-02-01T21:47:35;10.23;;;3.23;;
18677;SDS011;9469;51.114;13.914;2023-02-01T21:52:40;6.23;;;2.37;;
18677;SDS011;9469;51.114;13.914;2023-02-01T21:57:47;8.80;;;2.50;;
18677;SDS011;9469;51.114;13.914;2023-02-01T22:02:56;10.20;;;2.50;;
18677;SDS011;9469;51.114;13.914;2023-02-01T22:08:00;2.33;;;2.03;;
18677;SDS011;9469;51.114;13.914;2023-02-01T22:13:05;6.77;;;2.23;;
18677;SDS011;9469;51.114;13.914;2023-02-01T22:18:13;3.87;;;1.90;;
18677;SDS011;9469;51.114;13.914;2023-02-01T22:23:19;4.33;;;2.30;;
18677;SDS011;9469;51.114;13.914;2023-02-01T22:28:30;5.00;;;2.40;;
18677;SDS011;9469;51.114;13.914;2023-02-01T22:33:37;4.27;;;2.10;;
18677;SDS011;9469;51.114;13.914;2023-02-01T22:38:43;6.27;;;2.47;;
18677;SDS011;9469;51.114;13.914;2023-02-01T22:43:49;2.70;;;1.90;;
18677;SDS011;9469;51.114;13.914;2023-02-01T22:48:57;7.97;;;2.97;;
18677;SDS011;9469;51.114;13.914;2023-02-01T22:54:04;6.53;;;2.43;;
18677;SDS011;9469;51.114;13.914;2023-02-01T22:59:11;6.33;;;2.70;;
18677;SDS011;9469;51.114;13.914;2023-02-01T23:04:19;4.63;;;2.00;;
18677;SDS011;9469;51.114;13.914;2023-02-01T23:09:26;7.43;;;3.03;;
18677;SDS011;9469;51.114;13.914;2023-02-01T23:14:31;6.33;;;3.47;;
18677;SDS011;9469;51.114;13.914;2023-02-01T23:19:58;4.43;;;2.53;;
18677;SDS011;9469;51.114;13.914;2023-02-01T23:25:04;10.40;;;2.50;;
18677;SDS011;9469;51.114;13.914;2023-02-01T23:30:12;8.70;;;3.90;;
18677;SDS011;9469;51.114;13.914;2023-02-01T23:35:20;5.63;;;2.40;;
18677;SDS011;9469;51.114;13.914;2023-02-01T23:40:26;9.30;;;2.70;;
18677;SDS011;9469;51.114;13.914;2023-02-01T23:45:31;6.80;;;2.63;;
18677;SDS011;9469;51.114;13.914;2023-02-01T23:50:38;9.70;;;2.60;;
18677;SDS011;9469;51.114;13.914;2023-02-01T23:55:43;6.20;;;2.97;;
